ENVA/TRD METAR and TAF weather

Enter ICAO airport designator
Station Type Date Time Source
ENVA METAR 2019/08/22 08:50 UTC NOAA

ENVA 220850Z 10008KT CAVOK 17/09 Q1016 NOSIG RMK WIND 670FT 10005KT


Station Type Date Time Source
ENVA Decoded METAR 2019/08/22 08:50 UTC NOAA

Station name not available
Aug 22, 2019 - 04:50 AM EDT / 2019.08.22 0850 UTC
Wind: from the E (100 degrees) at 9 MPH (8 KT):0
Visibility: greater than 7 mile(s):0
Temperature: 62 F (17 C)
Dew Point: 48 F (9 C)
Relative Humidity: 59%
Pressure (altimeter): 30.00 in. Hg (1016 hPa)
ob: ENVA 220850Z 10008KT CAVOK 17/09 Q1016 NOSIG RMK WIND 670FT 10005KT
cycle: 9

Station Type Date Time Source
ENVA TAF 2019/08/22 06:57 UTC NOAA

TAF ENVA 220500Z 2206/2306 11007KT 9999 FEW040 SCT080 PROB30
TEMPO 2212/2217 17015G25KT PROB30
TEMPO 2300/2306 SHRA BKN014 SCT025CB

Example: see airport list